createdAt,value
2018-02-10T00:01:58.745Z,93510.25
2018-02-10T00:04:25.336Z,93512.66
2018-02-10T00:06:51.918Z,93511.10
2018-02-10T00:09:18.602Z,93514.50
2018-02-10T00:11:45.230Z,93511.10
2018-02-10T00:14:12.898Z,93513.62
2018-02-10T00:16:39.461Z,93515.92
2018-02-10T00:19:06.077Z,93514.56
2018-02-10T00:21:32.627Z,93526.94
2018-02-10T00:23:59.255Z,93522.59
2018-02-10T00:26:25.806Z,93529.22
2018-02-10T00:28:52.423Z,93516.17
2018-02-10T00:31:19.021Z,93528.56
2018-02-10T00:33:45.629Z,93526.80
2018-02-10T00:36:12.317Z,93522.59
2018-02-10T00:38:38.974Z,93526.39
2018-02-10T00:41:05.565Z,93526.63
2018-02-10T00:43:32.135Z,93524.05
2018-02-10T00:45:59.578Z,93522.16
2018-02-10T00:48:26.866Z,93524.80
2018-02-10T00:50:53.459Z,93529.36
2018-02-10T00:53:20.750Z,93526.77
2018-02-10T00:55:48.298Z,93525.95
2018-02-10T00:58:14.846Z,93527.05
2018-02-10T01:00:41.495Z,93533.98
2018-02-10T01:03:08.065Z,93530.30
2018-02-10T01:05:34.885Z,93526.00
2018-02-10T01:08:02.301Z,93529.22
2018-02-10T01:10:28.889Z,93531.80
2018-02-10T01:12:55.448Z,93533.59
2018-02-10T01:15:22.030Z,93533.32
2018-02-10T01:17:48.642Z,93532.84
2018-02-10T01:20:15.207Z,93536.34
2018-02-10T01:22:41.785Z,93529.63
2018-02-10T01:25:08.329Z,93532.50
2018-02-10T01:27:35.657Z,93536.60
2018-02-10T01:30:02.297Z,93540.00
2018-02-10T01:32:28.867Z,93542.92
2018-02-10T01:34:56.150Z,93545.82
2018-02-10T01:37:22.738Z,93542.55
2018-02-10T01:39:50.045Z,93537.73
2018-02-10T01:42:16.635Z,93537.28
2018-02-10T01:44:43.917Z,93543.30
2018-02-10T01:47:11.810Z,93544.89
2018-02-10T01:49:38.503Z,93540.81
2018-02-10T01:52:05.067Z,93544.07
2018-02-10T01:54:31.724Z,93542.77
2018-02-10T01:56:58.278Z,93542.58
2018-02-10T01:59:24.851Z,93542.12
2018-02-10T02:01:52.137Z,93543.05
2018-02-10T02:04:18.745Z,93539.66
2018-02-10T02:06:46.054Z,93537.02
2018-02-10T02:09:12.672Z,93541.19
2018-02-10T02:11:39.281Z,93534.73
2018-02-10T02:14:05.895Z,93536.22
2018-02-10T02:16:33.974Z,93534.16
2018-02-10T02:19:00.550Z,93534.03
2018-02-10T02:21:27.183Z,93532.46
2018-02-10T02:23:53.757Z,93531.83
2018-02-10T02:26:21.150Z,93536.28
2018-02-10T02:28:47.737Z,93542.50
2018-02-10T02:31:15.083Z,93538.52
2018-02-10T02:33:41.698Z,93544.94
2018-02-10T02:36:08.257Z,93538.89
2018-02-10T02:38:34.876Z,93539.97
2018-02-10T02:41:02.244Z,93542.32
2018-02-10T02:43:29.170Z,93537.48
2018-02-10T02:45:55.746Z,93537.31
2018-02-10T02:48:22.506Z,93542.36
2018-02-10T02:50:49.110Z,93541.17
2018-02-10T02:53:15.679Z,93543.88
2018-02-10T02:55:42.982Z,93545.13
2018-02-10T02:58:09.634Z,93549.62
2018-02-10T03:00:37.232Z,93550.19
2018-02-10T03:03:03.839Z,93549.60
2018-02-10T03:05:30.418Z,93548.64
2018-02-10T03:07:57.714Z,93543.67
2018-02-10T03:10:24.296Z,93547.77
2018-02-10T03:12:51.645Z,93548.67
2018-02-10T03:15:18.987Z,93548.86
2018-02-10T03:17:45.601Z,93549.53
2018-02-10T03:20:12.275Z,93544.78
2018-02-10T03:22:39.594Z,93546.56
2018-02-10T03:25:06.145Z,93545.48
2018-02-10T03:27:32.711Z,93555.11
2018-02-10T03:29:59.993Z,93556.00
2018-02-10T03:32:26.600Z,93560.54
2018-02-10T03:34:53.932Z,93562.67
2018-02-10T03:37:20.507Z,93571.80
2018-02-10T03:39:47.061Z,93570.48
2018-02-10T03:42:13.717Z,93568.69
2018-02-10T03:44:40.315Z,93566.99
2018-02-10T03:47:06.934Z,93566.99
2018-02-10T03:49:33.497Z,93571.87
2018-02-10T03:52:00.135Z,93576.12
2018-02-10T03:54:26.677Z,93576.03
2018-02-10T03:56:53.249Z,93577.80
2018-02-10T03:59:19.835Z,93576.77
2018-02-10T04:01:46.402Z,93586.83
2018-02-10T04:04:12.951Z,93580.98
2018-02-10T04:06:39.546Z,93586.89
2018-02-10T04:09:06.092Z,93575.73
2018-02-10T04:11:32.667Z,93585.26
2018-02-10T04:13:59.993Z,93587.64
2018-02-10T04:16:26.589Z,93587.71
2018-02-10T04:18:53.154Z,93592.10
2018-02-10T04:21:19.723Z,93579.67
2018-02-10T04:23:46.304Z,93592.19
2018-02-10T04:26:12.891Z,93591.92
2018-02-10T04:28:39.475Z,93594.41
2018-02-10T04:31:06.057Z,93588.88
2018-02-10T04:33:32.656Z,93592.05
2018-02-10T04:35:59.318Z,93587.38
2018-02-10T04:38:25.934Z,93591.68
2018-02-10T04:40:52.493Z,93592.61
2018-02-10T04:43:19.071Z,93589.34
2018-02-10T04:45:45.621Z,93596.29
2018-02-10T04:48:12.925Z,93600.91
2018-02-10T04:50:39.478Z,93599.98
2018-02-10T04:53:06.050Z,93608.78
2018-02-10T04:55:33.349Z,93608.18
2018-02-10T04:57:59.954Z,93616.53
2018-02-10T05:00:26.581Z,93615.77
2018-02-10T05:02:53.898Z,93615.30
2018-02-10T05:05:20.454Z,93615.94
2018-02-10T05:07:47.790Z,93615.45
2018-02-10T05:10:14.355Z,93619.66
2018-02-10T05:12:41.645Z,93614.77
2018-02-10T05:15:08.223Z,93625.48
2018-02-10T05:17:34.785Z,93619.53
2018-02-10T05:20:01.409Z,93621.83
2018-02-10T05:22:27.991Z,93627.95
2018-02-10T05:24:54.578Z,93619.74
2018-02-10T05:27:21.881Z,93619.80
2018-02-10T05:29:49.414Z,93627.70
2018-02-10T05:32:16.010Z,93619.56
2018-02-10T05:34:42.624Z,93621.39
2018-02-10T05:37:09.211Z,93620.92
2018-02-10T05:39:35.810Z,93621.33
2018-02-10T05:42:02.371Z,93631.09
2018-02-10T05:44:28.939Z,93631.02
2018-02-10T05:46:55.538Z,93630.67
2018-02-10T05:49:22.156Z,93633.93
2018-02-10T05:51:48.734Z,93634.69
2018-02-10T05:54:16.050Z,93634.08
2018-02-10T05:56:42.621Z,93634.67
2018-02-10T05:59:09.966Z,93631.36
2018-02-10T06:01:37.287Z,93636.26
2018-02-10T06:04:03.997Z,93645.00
2018-02-10T06:06:30.574Z,93645.61
2018-02-10T06:08:57.138Z,93642.88
2018-02-10T06:11:24.433Z,93645.20
2018-02-10T06:13:51.018Z,93646.43
2018-02-10T06:16:17.565Z,93650.75
2018-02-10T06:18:44.870Z,93652.11
2018-02-10T06:21:11.423Z,93657.16
2018-02-10T06:23:38.025Z,93654.98
2018-02-10T06:26:04.586Z,93658.16
2018-02-10T06:28:31.168Z,93657.61
2018-02-10T06:30:57.807Z,93657.69
2018-02-10T06:33:25.129Z,93666.59
2018-02-10T06:35:51.698Z,93673.59
2018-02-10T06:38:18.298Z,93672.77
2018-02-10T06:40:45.673Z,93680.09
2018-02-10T06:43:14.389Z,93681.53
2018-02-10T06:45:41.157Z,93687.16
2018-02-10T06:48:07.806Z,93688.80
2018-02-10T06:50:34.521Z,93695.52
2018-02-10T06:53:01.087Z,93702.77
2018-02-10T06:55:27.661Z,93701.83
2018-02-10T06:57:54.241Z,93704.13
2018-02-10T07:00:20.874Z,93698.58
2018-02-10T07:02:47.483Z,93704.53
2018-02-10T07:05:14.622Z,93707.72
2018-02-10T07:07:41.189Z,93709.48
2018-02-10T07:10:07.890Z,93698.50
2018-02-10T07:12:35.226Z,93701.14
2018-02-10T07:15:01.790Z,93704.25
2018-02-10T07:17:28.430Z,93699.95
2018-02-10T07:19:55.023Z,93700.84
2018-02-10T07:22:21.635Z,93702.71
2018-02-10T07:24:48.262Z,93710.64
2018-02-10T07:27:14.904Z,93717.84
2018-02-10T07:29:41.559Z,93710.12
2018-02-10T07:32:08.726Z,93719.57
2018-02-10T07:34:35.327Z,93728.70
2018-02-10T07:37:01.921Z,93734.40
2018-02-10T07:39:28.601Z,93728.28
2018-02-10T07:41:55.234Z,93734.59
2018-02-10T07:44:21.850Z,93723.64
2018-02-10T07:46:48.466Z,93727.19
2018-02-10T07:49:15.915Z,93723.48
2018-02-10T07:51:42.541Z,93725.15
2018-02-10T07:54:09.208Z,93724.43
2018-02-10T07:56:36.520Z,93719.98
2018-02-10T07:59:03.132Z,93716.70
2018-02-10T08:01:29.718Z,93721.29
2018-02-10T08:03:56.354Z,93722.70
2018-02-10T08:06:22.929Z,93730.91
2018-02-10T08:08:49.563Z,93732.11
2018-02-10T08:11:16.154Z,93729.16
2018-02-10T08:13:42.798Z,93730.93
2018-02-10T08:16:09.433Z,93743.88
2018-02-10T08:18:36.819Z,93747.05
2018-02-10T08:21:03.412Z,93755.01
2018-02-10T08:23:30.027Z,93754.80
2018-02-10T08:25:58.156Z,93755.09
2018-02-10T08:28:25.503Z,93755.14
2018-02-10T08:30:52.844Z,93753.72
2018-02-10T08:33:20.219Z,93755.44
2018-02-10T08:35:47.557Z,93759.84
2018-02-10T08:38:14.889Z,93761.05
2018-02-10T08:40:41.504Z,93756.42
2018-02-10T08:43:08.090Z,93755.19
2018-02-10T08:45:34.697Z,93767.16
2018-02-10T08:48:01.349Z,93765.69
2018-02-10T08:50:28.721Z,93768.87
2018-02-10T08:52:56.088Z,93778.16
2018-02-10T08:55:22.782Z,93780.39
2018-02-10T08:57:49.361Z,93779.05
2018-02-10T09:00:15.986Z,93778.77
2018-02-10T09:02:43.327Z,93774.83
2018-02-10T09:05:09.938Z,93777.01
2018-02-10T09:07:36.537Z,93779.34
2018-02-10T09:10:03.171Z,93780.67
2018-02-10T09:12:30.507Z,93781.77
2018-02-10T09:14:57.444Z,93777.23
2018-02-10T09:17:24.842Z,93783.34
2018-02-10T09:19:51.510Z,93777.91
2018-02-10T09:22:18.099Z,93777.72
2018-02-10T09:24:45.523Z,93777.34
2018-02-10T09:27:12.129Z,93777.80
2018-02-10T09:29:38.710Z,93780.63
2018-02-10T09:32:05.462Z,93779.80
2018-02-10T09:34:32.121Z,93782.11
2018-02-10T09:36:58.695Z,93775.70
2018-02-10T09:39:25.323Z,93779.06
2018-02-10T09:41:51.961Z,93785.55
2018-02-10T09:44:18.535Z,93784.03
2018-02-10T09:46:45.138Z,93784.34
2018-02-10T09:49:11.729Z,93783.08
2018-02-10T09:51:38.305Z,93779.48
2018-02-10T09:54:04.906Z,93779.40
2018-02-10T09:56:31.508Z,93783.32
2018-02-10T09:58:58.138Z,93778.17
2018-02-10T10:01:24.714Z,93785.11
2018-02-10T10:03:51.325Z,93781.61
2018-02-10T10:06:17.895Z,93783.87
2018-02-10T10:08:44.533Z,93787.23
2018-02-10T10:11:11.131Z,93790.04
2018-02-10T10:13:38.522Z,93791.67
2018-02-10T10:16:05.175Z,93785.02
2018-02-10T10:18:31.868Z,93786.66
2018-02-10T10:20:58.523Z,93783.94
2018-02-10T10:23:25.219Z,93785.94
2018-02-10T10:25:51.826Z,93777.30
2018-02-10T10:28:18.430Z,93779.91
2018-02-10T10:30:45.755Z,93789.59
2018-02-10T10:33:13.317Z,93787.05
2018-02-10T10:35:39.918Z,93782.77
2018-02-10T10:38:06.523Z,93773.16
2018-02-10T10:40:33.174Z,93777.89
2018-02-10T10:42:59.745Z,93773.16
2018-02-10T10:45:26.365Z,93768.25
2018-02-10T10:47:52.975Z,93768.38
2018-02-10T10:50:20.457Z,93772.44
2018-02-10T10:52:47.770Z,93765.76
2018-02-10T10:55:15.111Z,93759.11
2018-02-10T10:57:41.710Z,93759.13
2018-02-10T11:00:09.160Z,93764.77
2018-02-10T11:02:36.528Z,93763.19
2018-02-10T11:05:03.125Z,93755.59
2018-02-10T11:07:29.702Z,93754.00
2018-02-10T11:09:56.287Z,93745.89
2018-02-10T11:12:23.643Z,93742.97
2018-02-10T11:14:50.226Z,93740.97
2018-02-10T11:17:16.824Z,93749.93
2018-02-10T11:19:44.144Z,93742.43
2018-02-10T11:22:10.754Z,93746.06
2018-02-10T11:24:37.334Z,93749.08
2018-02-10T11:27:04.945Z,93741.97
2018-02-10T11:29:31.559Z,93742.96
2018-02-10T11:31:58.144Z,93738.36
2018-02-10T11:34:24.792Z,93747.56
2018-02-10T11:36:51.366Z,93747.45
2018-02-10T11:39:19.075Z,93746.98
2018-02-10T11:41:45.678Z,93747.45
2018-02-10T11:44:12.309Z,93759.45
2018-02-10T11:46:38.942Z,93753.92
2018-02-10T11:49:05.525Z,93758.98
2018-02-10T11:51:32.899Z,93761.59
2018-02-10T11:53:59.490Z,93758.76
2018-02-10T11:56:26.084Z,93757.91
2018-02-10T11:58:53.409Z,93758.59
2018-02-10T12:01:20.105Z,93755.48
2018-02-10T12:03:47.518Z,93749.19
2018-02-10T12:06:14.106Z,93749.50
2018-02-10T12:08:40.709Z,93755.55
2018-02-10T12:11:08.006Z,93754.36
2018-02-10T12:13:34.586Z,93753.95
2018-02-10T12:16:01.199Z,93746.50
2018-02-10T12:18:27.786Z,93755.92
2018-02-10T12:20:54.383Z,93751.45
2018-02-10T12:23:20.965Z,93752.14
2018-02-10T12:25:47.586Z,93744.67
2018-02-10T12:28:14.900Z,93744.78
2018-02-10T12:30:41.461Z,93744.65
2018-02-10T12:33:08.058Z,93742.47
2018-02-10T12:35:34.676Z,93738.45
2018-02-10T12:38:01.242Z,93733.34
2018-02-10T12:40:27.829Z,93745.26
2018-02-10T12:42:55.106Z,93738.59
2018-02-10T12:45:21.694Z,93736.22
2018-02-10T13:01:08.011Z,93733.33
2018-02-10T13:03:34.601Z,93731.91
2018-02-10T13:06:02.007Z,93733.86
2018-02-10T13:08:28.604Z,93723.13
2018-02-10T13:10:55.182Z,93726.57
2018-02-10T13:13:21.804Z,93720.50
2018-02-10T13:15:48.411Z,93719.70
2018-02-10T13:18:15.002Z,93722.13
2018-02-10T13:20:41.581Z,93721.80
2018-02-10T13:23:09.008Z,93718.52
2018-02-10T13:25:35.614Z,93723.94
2018-02-10T13:28:02.281Z,93722.55
2018-02-10T13:30:28.847Z,93719.23
2018-02-10T13:32:55.537Z,93716.73
2018-02-10T13:35:22.365Z,93721.37
2018-02-10T13:37:49.066Z,93725.55
2018-02-10T13:40:15.642Z,93722.50
2018-02-10T13:42:42.277Z,93726.51
2018-02-10T13:45:09.629Z,93732.27
2018-02-10T13:47:36.234Z,93731.75
2018-02-10T13:50:02.882Z,93732.00
2018-02-10T13:52:30.238Z,93731.16
2018-02-10T13:54:56.819Z,93732.05
2018-02-10T13:57:23.441Z,93724.53
2018-02-10T13:59:50.345Z,93728.30
2018-02-10T14:02:17.026Z,93733.48
2018-02-10T14:04:43.579Z,93729.73
2018-02-10T14:07:10.184Z,93725.20
2018-02-10T14:09:36.815Z,93732.97
2018-02-10T14:12:03.418Z,93732.09
2018-02-10T14:14:30.007Z,93731.23
2018-02-10T14:16:56.557Z,93729.73
2018-02-10T14:19:23.147Z,93726.98
2018-02-10T14:21:49.754Z,93716.97
2018-02-10T14:24:16.358Z,93717.55
2018-02-10T14:26:42.965Z,93722.96
2018-02-10T14:29:10.346Z,93721.97
2018-02-10T14:31:36.998Z,93724.76
2018-02-10T14:34:03.669Z,93726.46
2018-02-10T14:36:30.274Z,93731.95
2018-02-10T14:38:56.837Z,93728.06
2018-02-10T14:41:24.281Z,93734.40
2018-02-10T14:43:50.851Z,93740.08
2018-02-10T14:46:18.208Z,93735.34
2018-02-10T14:48:44.795Z,93733.45
2018-02-10T14:51:11.377Z,93731.53
2018-02-10T14:53:37.972Z,93734.80
2018-02-10T14:56:04.545Z,93731.98
2018-02-10T14:58:31.913Z,93732.21
2018-02-10T15:00:58.515Z,93730.03
2018-02-10T15:03:25.094Z,93724.76
2018-02-10T15:05:52.426Z,93723.94
2018-02-10T15:08:19.031Z,93724.66
2018-02-10T15:10:45.641Z,93714.63
2018-02-10T15:13:12.302Z,93724.25
2018-02-10T15:15:38.912Z,93728.33
2018-02-10T15:18:05.543Z,93720.64
2018-02-10T15:20:33.112Z,93722.34
2018-02-10T15:22:59.685Z,93724.20
2018-02-10T15:25:26.329Z,93719.52
2018-02-10T15:27:52.922Z,93720.98
2018-02-10T15:30:37.978Z,93718.94
2018-02-10T15:46:41.531Z,93701.38
2018-02-10T15:49:08.140Z,93710.80
2018-02-10T15:51:34.744Z,93708.36
2018-02-10T15:54:02.097Z,93713.39
2018-02-10T15:56:28.691Z,93713.15
2018-02-10T15:58:55.243Z,93711.66
2018-02-10T16:01:21.863Z,93716.04
2018-02-10T16:03:49.096Z,93716.56
2018-02-10T16:06:15.689Z,93715.80
2018-02-10T16:08:42.295Z,93721.21
2018-02-10T16:11:09.015Z,93727.68
2018-02-10T16:13:36.368Z,93721.37
2018-02-10T16:16:02.979Z,93719.23
2018-02-10T16:18:29.596Z,93715.01
2018-02-10T16:20:56.230Z,93719.73
2018-02-10T16:23:22.871Z,93709.12
2018-02-10T16:25:49.479Z,93723.70
2018-02-10T16:28:16.083Z,93730.11
2018-02-10T16:30:42.689Z,93726.89
2018-02-10T16:33:09.290Z,93733.36
2018-02-10T16:35:36.420Z,93721.16
2018-02-10T16:38:02.990Z,93730.14
2018-02-10T16:40:30.339Z,93725.69
2018-02-10T16:42:57.675Z,93727.84
2018-02-10T16:45:24.219Z,93732.33
2018-02-10T16:47:51.573Z,93723.38
2018-02-10T16:50:18.902Z,93730.33
2018-02-10T16:52:45.826Z,93731.69
2018-02-10T16:55:12.395Z,93731.67
2018-02-10T16:57:38.967Z,93732.61
2018-02-10T17:00:06.306Z,93737.87
2018-02-10T17:02:32.895Z,93731.42
2018-02-10T17:04:59.586Z,93735.48
2018-02-10T17:07:26.883Z,93738.43
2018-02-10T17:09:53.524Z,93742.86
2018-02-10T17:12:20.125Z,93744.20
2018-02-10T17:14:47.457Z,93740.38
2018-02-10T17:17:14.050Z,93731.15
2018-02-10T17:19:40.647Z,93736.59
2018-02-10T17:22:07.980Z,93735.58
2018-02-10T17:24:34.577Z,93735.08
2018-02-10T17:27:01.158Z,93737.19
2018-02-10T17:29:27.754Z,93737.32
2018-02-10T17:31:54.423Z,93732.99
2018-02-10T17:34:21.034Z,93742.58
2018-02-10T17:36:47.599Z,93742.28
2018-02-10T17:39:14.237Z,93746.08
2018-02-10T17:41:40.798Z,93748.95
2018-02-10T17:44:08.399Z,93749.44
2018-02-10T17:46:34.994Z,93748.83
2018-02-10T17:49:02.318Z,93751.56
2018-02-10T17:51:28.933Z,93749.39
2018-02-10T17:53:55.486Z,93743.78
2018-02-10T17:56:22.859Z,93741.55
2018-02-10T17:58:50.190Z,93746.65
2018-02-10T18:01:16.815Z,93745.02
2018-02-10T18:03:43.422Z,93749.13
2018-02-10T18:06:10.047Z,93749.34
2018-02-10T18:08:37.386Z,93757.41
2018-02-10T18:11:04.738Z,93749.78
2018-02-10T18:13:32.086Z,93748.59
2018-02-10T18:15:58.726Z,93743.59
2018-02-10T18:18:26.057Z,93736.86
2018-02-10T18:20:52.665Z,93742.87
2018-02-10T18:23:19.330Z,93742.99
2018-02-10T18:25:45.930Z,93749.88
2018-02-10T18:28:12.557Z,93747.20
2018-02-10T18:30:39.159Z,93744.08
2018-02-10T18:33:05.791Z,93748.03
2018-02-10T18:35:32.370Z,93749.39
2018-02-10T18:37:58.984Z,93751.57
2018-02-10T18:40:26.430Z,93746.29
2018-02-10T18:42:53.785Z,93743.55
2018-02-10T18:45:21.148Z,93741.94
2018-02-10T18:47:47.705Z,93739.86
2018-02-10T18:50:14.345Z,93740.75
2018-02-10T18:52:40.985Z,93745.48
2018-02-10T18:55:07.612Z,93739.22
2018-02-10T18:57:34.278Z,93746.50
2018-02-10T19:00:00.888Z,93743.41
2018-02-10T19:02:27.471Z,93746.09
2018-02-10T19:04:54.254Z,93737.45
2018-02-10T19:07:21.611Z,93734.12
2018-02-10T19:09:48.198Z,93743.63
2018-02-10T19:12:14.808Z,93744.30
2018-02-10T19:14:41.598Z,93742.91
2018-02-10T19:17:08.154Z,93751.09
2018-02-10T19:19:35.506Z,93754.86
2018-02-10T19:22:02.870Z,93748.77
2018-02-10T19:24:29.462Z,93750.37
2018-02-10T19:26:56.042Z,93751.57
2018-02-10T19:29:22.650Z,93745.34
2018-02-10T19:31:49.236Z,93746.42
2018-02-10T19:34:15.858Z,93742.55
2018-02-10T19:36:43.193Z,93742.30
2018-02-10T19:39:10.542Z,93739.62
2018-02-10T19:41:37.995Z,93741.89
2018-02-10T19:44:04.609Z,93739.78
2018-02-10T19:46:31.201Z,93743.70
2018-02-10T19:48:57.796Z,93744.61
2018-02-10T19:51:24.379Z,93741.55
2018-02-10T19:53:51.010Z,93739.98
2018-02-10T19:56:17.594Z,93734.67
2018-02-10T19:58:44.235Z,93735.28
2018-02-10T20:01:10.815Z,93727.66
2018-02-10T20:03:37.621Z,93726.65
2018-02-10T20:06:04.962Z,93724.75
2018-02-10T20:08:31.557Z,93724.12
2018-02-10T20:10:58.178Z,93721.84
2018-02-10T20:13:25.521Z,93726.81
2018-02-10T20:15:52.883Z,93724.98
2018-02-10T20:18:19.498Z,93722.89
2018-02-10T20:20:46.886Z,93726.30
2018-02-10T20:23:13.535Z,93723.37
2018-02-10T20:25:40.162Z,93718.41
2018-02-10T20:28:06.770Z,93711.91
2018-02-10T20:30:34.139Z,93712.80
2018-02-10T20:33:00.755Z,93708.90
2018-02-10T20:35:28.111Z,93713.85
2018-02-10T20:37:55.480Z,93711.70
2018-02-10T20:40:22.834Z,93714.29
2018-02-10T20:42:50.183Z,93708.34
2018-02-10T20:45:16.787Z,93704.25
2018-02-10T20:47:43.921Z,93708.52
2018-02-10T20:50:10.538Z,93705.92
2018-02-10T20:52:37.155Z,93695.17
2018-02-10T20:55:03.766Z,93702.88
2018-02-10T20:57:30.371Z,93697.98
2018-02-10T20:59:57.064Z,93687.27
2018-02-10T21:02:24.495Z,93692.94
2018-02-10T21:04:51.086Z,93696.69
2018-02-10T21:07:17.678Z,93692.94
2018-02-10T21:09:44.292Z,93688.73
2018-02-10T21:12:10.918Z,93694.19
2018-02-10T21:14:37.602Z,93692.68
2018-02-10T21:17:04.964Z,93690.27
2018-02-10T21:19:32.356Z,93681.81
2018-02-10T21:21:58.937Z,93683.45
2018-02-10T21:24:25.558Z,93674.88
2018-02-10T21:26:52.171Z,93670.95
2018-02-10T21:29:18.775Z,93668.51
2018-02-10T21:31:45.385Z,93672.30
2018-02-10T21:34:11.976Z,93675.11
2018-02-10T21:36:38.988Z,93677.40
2018-02-10T21:39:06.390Z,93680.80
2018-02-10T21:41:33.007Z,93680.06
2018-02-10T21:43:59.655Z,93670.36
2018-02-10T21:46:26.225Z,93671.11
2018-02-10T21:48:52.874Z,93665.06
2018-02-10T21:51:19.472Z,93666.55
2018-02-10T21:53:46.193Z,93660.48
2018-02-10T21:56:12.815Z,93661.04
2018-02-10T21:58:39.415Z,93656.87
2018-02-10T22:01:06.023Z,93661.46
2018-02-10T22:03:32.606Z,93661.20
2018-02-10T22:05:59.977Z,93657.97
2018-02-10T22:08:26.614Z,93655.09
2018-02-10T22:10:53.276Z,93649.56
2018-02-10T22:13:19.871Z,93649.36
2018-02-10T22:15:47.264Z,93639.98
2018-02-10T22:18:13.931Z,93642.82
2018-02-10T22:20:40.554Z,93642.03
2018-02-10T22:23:07.168Z,93634.94
2018-02-10T22:25:34.490Z,93633.47
2018-02-10T22:28:01.109Z,93632.42
2018-02-10T22:30:27.752Z,93626.28
2018-02-10T22:32:54.339Z,93629.94
2018-02-10T22:35:20.958Z,93619.60
2018-02-10T22:37:47.599Z,93615.55
2018-02-10T22:40:14.269Z,93618.45
2018-02-10T22:42:40.903Z,93613.98
2018-02-10T22:45:07.683Z,93609.16
2018-02-10T22:47:35.050Z,93607.95
2018-02-10T22:50:02.405Z,93615.01
2018-02-10T22:52:29.824Z,93605.06
2018-02-10T22:54:56.419Z,93599.52
2018-02-10T22:57:23.008Z,93587.62
2018-02-10T22:59:49.613Z,93586.44
2018-02-10T23:02:16.236Z,93578.85
2018-02-10T23:04:42.913Z,93567.30
2018-02-10T23:07:10.282Z,93568.28
2018-02-10T23:09:36.871Z,93564.17
2018-02-10T23:12:03.494Z,93562.78
2018-02-10T23:14:30.089Z,93557.19
2018-02-10T23:16:56.767Z,93559.56
2018-02-10T23:19:23.408Z,93556.07
2018-02-10T23:21:50.058Z,93552.11
2018-02-10T23:24:16.632Z,93545.87
2018-02-10T23:26:43.502Z,93548.20
2018-02-10T23:29:10.131Z,93548.44
2018-02-10T23:31:36.759Z,93547.67
2018-02-10T23:34:03.380Z,93537.84
2018-02-10T23:36:29.973Z,93538.35
2018-02-10T23:38:57.308Z,93534.06
2018-02-10T23:41:24.676Z,93529.59
2018-02-10T23:43:52.074Z,93521.70
2018-02-10T23:46:18.706Z,93522.42
2018-02-10T23:48:45.298Z,93525.88
2018-02-10T23:51:11.876Z,93512.71
2018-02-10T23:53:38.490Z,93514.00
2018-02-10T23:56:05.080Z,93513.70
2018-02-10T23:58:31.689Z,93516.43
